sensor_id;sensor_type;location;lat;lon;timestamp;P1;durP1;ratioP1;P2;durP2;ratioP2
71572;SDS011;59408;51.032;9.410;2023-03-01T00:00:09;17.75;;;8.15;;
71572;SDS011;59408;51.032;9.410;2023-03-01T00:02:36;18.63;;;8.30;;
71572;SDS011;59408;51.032;9.410;2023-03-01T00:05:03;17.02;;;7.50;;
71572;SDS011;59408;51.032;9.410;2023-03-01T00:07:30;16.90;;;7.88;;
71572;SDS011;59408;51.032;9.410;2023-03-01T00:09:58;30.75;;;13.82;;
71572;SDS011;59408;51.032;9.410;2023-03-01T00:12:25;23.77;;;11.48;;
71572;SDS011;59408;51.032;9.410;2023-03-01T00:14:51;19.47;;;7.73;;
71572;SDS011;59408;51.032;9.410;2023-03-01T00:17:18;17.38;;;7.50;;
71572;SDS011;59408;51.032;9.410;2023-03-01T00:19:45;16.90;;;7.50;;
71572;SDS011;59408;51.032;9.410;2023-03-01T00:22:11;15.88;;;6.97;;
71572;SDS011;59408;51.032;9.410;2023-03-01T00:24:38;16.00;;;6.97;;
71572;SDS011;59408;51.032;9.410;2023-03-01T00:27:06;16.23;;;6.80;;
71572;SDS011;59408;51.032;9.410;2023-03-01T00:29:32;17.85;;;7.63;;
71572;SDS011;59408;51.032;9.410;2023-03-01T00:31:59;18.52;;;7.65;;
71572;SDS011;59408;51.032;9.410;2023-03-01T00:34:26;19.13;;;7.35;;
71572;SDS011;59408;51.032;9.410;2023-03-01T00:36:52;17.85;;;7.75;;
71572;SDS011;59408;51.032;9.410;2023-03-01T00:39:19;16.17;;;6.80;;
71572;SDS011;59408;51.032;9.410;2023-03-01T00:41:45;17.30;;;7.82;;
71572;SDS011;59408;51.032;9.410;2023-03-01T00:44:13;15.35;;;6.97;;
71572;SDS011;59408;51.032;9.410;2023-03-01T00:46:40;18.60;;;7.82;;
71572;SDS011;59408;51.032;9.410;2023-03-01T00:49:07;17.10;;;7.70;;
71572;SDS011;59408;51.032;9.410;2023-03-01T00:51:33;16.13;;;7.40;;
71572;SDS011;59408;51.032;9.410;2023-03-01T00:54:00;18.95;;;7.63;;
71572;SDS011;59408;51.032;9.410;2023-03-01T00:56:28;16.50;;;7.97;;
71572;SDS011;59408;51.032;9.410;2023-03-01T00:58:55;18.30;;;7.72;;
71572;SDS011;59408;51.032;9.410;2023-03-01T01:01:24;16.23;;;7.55;;
71572;SDS011;59408;51.032;9.410;2023-03-01T01:03:53;15.40;;;6.97;;
71572;SDS011;59408;51.032;9.410;2023-03-01T01:06:21;18.52;;;7.20;;
71572;SDS011;59408;51.032;9.410;2023-03-01T01:08:49;16.20;;;7.38;;
71572;SDS011;59408;51.032;9.410;2023-03-01T01:11:16;18.45;;;7.53;;
71572;SDS011;59408;51.032;9.410;2023-03-01T01:13:43;16.80;;;7.75;;
71572;SDS011;59408;51.032;9.410;2023-03-01T01:16:11;19.17;;;7.50;;
71572;SDS011;59408;51.032;9.410;2023-03-01T01:18:40;18.25;;;8.10;;
71572;SDS011;59408;51.032;9.410;2023-03-01T01:21:07;18.35;;;7.93;;
71572;SDS011;59408;51.032;9.410;2023-03-01T01:23:36;21.40;;;8.55;;
71572;SDS011;59408;51.032;9.410;2023-03-01T01:26:04;19.70;;;8.82;;
71572;SDS011;59408;51.032;9.410;2023-03-01T01:28:31;19.00;;;7.87;;
71572;SDS011;59408;51.032;9.410;2023-03-01T01:30:58;18.80;;;8.25;;
71572;SDS011;59408;51.032;9.410;2023-03-01T01:33:25;20.45;;;8.90;;
71572;SDS011;59408;51.032;9.410;2023-03-01T01:35:53;19.45;;;7.78;;
71572;SDS011;59408;51.032;9.410;2023-03-01T01:38:20;17.10;;;7.93;;
71572;SDS011;59408;51.032;9.410;2023-03-01T01:40:47;17.97;;;7.77;;
71572;SDS011;59408;51.032;9.410;2023-03-01T01:43:16;17.63;;;7.72;;
71572;SDS011;59408;51.032;9.410;2023-03-01T01:45:46;15.73;;;7.07;;
71572;SDS011;59408;51.032;9.410;2023-03-01T01:48:14;16.65;;;7.72;;
71572;SDS011;59408;51.032;9.410;2023-03-01T01:50:45;17.60;;;7.60;;
71572;SDS011;59408;51.032;9.410;2023-03-01T01:53:22;22.03;;;8.40;;
71572;SDS011;59408;51.032;9.410;2023-03-01T01:55:51;18.42;;;7.78;;
71572;SDS011;59408;51.032;9.410;2023-03-01T01:58:20;18.13;;;8.57;;
71572;SDS011;59408;51.032;9.410;2023-03-01T02:00:48;16.90;;;7.53;;
71572;SDS011;59408;51.032;9.410;2023-03-01T02:03:17;18.15;;;7.45;;
71572;SDS011;59408;51.032;9.410;2023-03-01T02:05:50;16.43;;;7.23;;
71572;SDS011;59408;51.032;9.410;2023-03-01T02:08:23;18.00;;;7.63;;
71572;SDS011;59408;51.032;9.410;2023-03-01T02:10:53;18.63;;;7.13;;
71572;SDS011;59408;51.032;9.410;2023-03-01T02:13:21;17.55;;;7.28;;
71572;SDS011;59408;51.032;9.410;2023-03-01T02:15:48;16.15;;;7.43;;
71572;SDS011;59408;51.032;9.410;2023-03-01T02:18:16;18.07;;;7.83;;
71572;SDS011;59408;51.032;9.410;2023-03-01T02:20:48;17.65;;;6.80;;
71572;SDS011;59408;51.032;9.410;2023-03-01T02:23:24;15.75;;;7.32;;
71572;SDS011;59408;51.032;9.410;2023-03-01T02:25:53;18.92;;;7.25;;
71572;SDS011;59408;51.032;9.410;2023-03-01T02:28:30;16.67;;;7.03;;
71572;SDS011;59408;51.032;9.410;2023-03-01T02:30:58;16.97;;;7.27;;
71572;SDS011;59408;51.032;9.410;2023-03-01T02:33:24;15.80;;;7.22;;
71572;SDS011;59408;51.032;9.410;2023-03-01T02:35:51;17.63;;;7.75;;
71572;SDS011;59408;51.032;9.410;2023-03-01T02:38:20;17.52;;;7.45;;
71572;SDS011;59408;51.032;9.410;2023-03-01T02:40:48;17.35;;;7.30;;
71572;SDS011;59408;51.032;9.410;2023-03-01T02:43:16;15.53;;;7.37;;
71572;SDS011;59408;51.032;9.410;2023-03-01T02:45:49;14.70;;;6.35;;
71572;SDS011;59408;51.032;9.410;2023-03-01T02:48:16;15.10;;;7.45;;
71572;SDS011;59408;51.032;9.410;2023-03-01T02:50:46;16.42;;;7.63;;
71572;SDS011;59408;51.032;9.410;2023-03-01T02:53:23;19.27;;;8.13;;
71572;SDS011;59408;51.032;9.410;2023-03-01T02:55:58;17.13;;;6.30;;
71572;SDS011;59408;51.032;9.410;2023-03-01T02:58:24;18.63;;;8.00;;
71572;SDS011;59408;51.032;9.410;2023-03-01T03:00:52;16.30;;;6.95;;
71572;SDS011;59408;51.032;9.410;2023-03-01T03:03:20;18.42;;;7.00;;
71572;SDS011;59408;51.032;9.410;2023-03-01T03:05:47;16.15;;;6.60;;
71572;SDS011;59408;51.032;9.410;2023-03-01T03:08:14;18.20;;;7.20;;
71572;SDS011;59408;51.032;9.410;2023-03-01T03:10:41;16.67;;;7.13;;
71572;SDS011;59408;51.032;9.410;2023-03-01T03:13:09;16.48;;;7.10;;
71572;SDS011;59408;51.032;9.410;2023-03-01T03:15:37;17.42;;;6.90;;
71572;SDS011;59408;51.032;9.410;2023-03-01T03:18:06;19.70;;;7.85;;
71572;SDS011;59408;51.032;9.410;2023-03-01T03:20:37;18.17;;;7.80;;
71572;SDS011;59408;51.032;9.410;2023-03-01T03:23:06;18.67;;;8.02;;
71572;SDS011;59408;51.032;9.410;2023-03-01T03:25:32;16.85;;;7.15;;
71572;SDS011;59408;51.032;9.410;2023-03-01T03:27:59;17.00;;;6.88;;
71572;SDS011;59408;51.032;9.410;2023-03-01T03:30:26;17.00;;;7.07;;
71572;SDS011;59408;51.032;9.410;2023-03-01T03:32:54;18.30;;;7.60;;
71572;SDS011;59408;51.032;9.410;2023-03-01T03:35:24;16.33;;;6.80;;
71572;SDS011;59408;51.032;9.410;2023-03-01T03:37:52;20.63;;;8.10;;
71572;SDS011;59408;51.032;9.410;2023-03-01T03:40:19;21.17;;;7.75;;
71572;SDS011;59408;51.032;9.410;2023-03-01T03:42:45;19.38;;;8.32;;
71572;SDS011;59408;51.032;9.410;2023-03-01T03:45:12;19.30;;;8.03;;
71572;SDS011;59408;51.032;9.410;2023-03-01T03:47:38;20.08;;;8.07;;
71572;SDS011;59408;51.032;9.410;2023-03-01T03:50:05;20.88;;;7.53;;
71572;SDS011;59408;51.032;9.410;2023-03-01T03:52:34;17.02;;;7.20;;
71572;SDS011;59408;51.032;9.410;2023-03-01T03:55:00;15.30;;;7.55;;
71572;SDS011;59408;51.032;9.410;2023-03-01T03:57:27;19.37;;;7.50;;
71572;SDS011;59408;51.032;9.410;2023-03-01T03:59:54;17.23;;;7.15;;
71572;SDS011;59408;51.032;9.410;2023-03-01T04:02:20;17.92;;;7.68;;
71572;SDS011;59408;51.032;9.410;2023-03-01T04:04:47;17.30;;;7.38;;
71572;SDS011;59408;51.032;9.410;2023-03-01T04:07:14;16.95;;;7.10;;
71572;SDS011;59408;51.032;9.410;2023-03-01T04:09:42;15.97;;;6.73;;
71572;SDS011;59408;51.032;9.410;2023-03-01T04:12:09;18.45;;;7.43;;
71572;SDS011;59408;51.032;9.410;2023-03-01T04:14:36;19.48;;;8.30;;
71572;SDS011;59408;51.032;9.410;2023-03-01T04:17:03;20.55;;;7.72;;
71572;SDS011;59408;51.032;9.410;2023-03-01T04:19:29;17.33;;;7.47;;
71572;SDS011;59408;51.032;9.410;2023-03-01T04:21:56;17.70;;;7.67;;
71572;SDS011;59408;51.032;9.410;2023-03-01T04:24:22;17.95;;;7.22;;
71572;SDS011;59408;51.032;9.410;2023-03-01T04:26:50;21.10;;;7.38;;
71572;SDS011;59408;51.032;9.410;2023-03-01T04:29:17;17.98;;;7.70;;
71572;SDS011;59408;51.032;9.410;2023-03-01T04:31:44;17.75;;;6.63;;
71572;SDS011;59408;51.032;9.410;2023-03-01T04:34:10;18.60;;;7.47;;
71572;SDS011;59408;51.032;9.410;2023-03-01T04:36:37;20.42;;;7.70;;
71572;SDS011;59408;51.032;9.410;2023-03-01T04:39:04;21.35;;;7.85;;
71572;SDS011;59408;51.032;9.410;2023-03-01T04:41:30;19.58;;;7.68;;
71572;SDS011;59408;51.032;9.410;2023-03-01T04:43:58;16.92;;;8.10;;
71572;SDS011;59408;51.032;9.410;2023-03-01T04:46:25;20.80;;;7.47;;
71572;SDS011;59408;51.032;9.410;2023-03-01T04:48:52;18.10;;;7.90;;
71572;SDS011;59408;51.032;9.410;2023-03-01T04:51:18;17.90;;;7.70;;
71572;SDS011;59408;51.032;9.410;2023-03-01T04:53:45;18.58;;;7.75;;
71572;SDS011;59408;51.032;9.410;2023-03-01T04:56:12;23.42;;;8.23;;
71572;SDS011;59408;51.032;9.410;2023-03-01T04:58:39;19.80;;;7.50;;
71572;SDS011;59408;51.032;9.410;2023-03-01T05:01:12;21.30;;;8.40;;
71572;SDS011;59408;51.032;9.410;2023-03-01T05:03:41;20.83;;;9.27;;
71572;SDS011;59408;51.032;9.410;2023-03-01T05:06:08;19.42;;;8.65;;
71572;SDS011;59408;51.032;9.410;2023-03-01T05:08:35;21.77;;;8.55;;
71572;SDS011;59408;51.032;9.410;2023-03-01T05:11:02;21.07;;;8.37;;
71572;SDS011;59408;51.032;9.410;2023-03-01T05:13:29;18.75;;;8.80;;
71572;SDS011;59408;51.032;9.410;2023-03-01T05:15:56;19.83;;;8.52;;
71572;SDS011;59408;51.032;9.410;2023-03-01T05:18:26;19.40;;;8.30;;
71572;SDS011;59408;51.032;9.410;2023-03-01T05:20:54;21.55;;;8.57;;
71572;SDS011;59408;51.032;9.410;2023-03-01T05:23:21;22.77;;;8.60;;
71572;SDS011;59408;51.032;9.410;2023-03-01T05:25:48;21.77;;;8.98;;
71572;SDS011;59408;51.032;9.410;2023-03-01T05:28:15;21.60;;;8.98;;
71572;SDS011;59408;51.032;9.410;2023-03-01T05:30:41;20.30;;;8.48;;
71572;SDS011;59408;51.032;9.410;2023-03-01T05:33:08;21.52;;;9.45;;
71572;SDS011;59408;51.032;9.410;2023-03-01T05:35:36;19.63;;;8.23;;
71572;SDS011;59408;51.032;9.410;2023-03-01T05:38:03;21.08;;;8.50;;
71572;SDS011;59408;51.032;9.410;2023-03-01T05:40:29;23.70;;;8.60;;
71572;SDS011;59408;51.032;9.410;2023-03-01T05:42:59;21.77;;;9.07;;
71572;SDS011;59408;51.032;9.410;2023-03-01T05:45:26;22.63;;;9.60;;
71572;SDS011;59408;51.032;9.410;2023-03-01T05:47:53;21.77;;;9.37;;
71572;SDS011;59408;51.032;9.410;2023-03-01T05:50:21;21.60;;;8.95;;
71572;SDS011;59408;51.032;9.410;2023-03-01T05:52:51;20.15;;;8.85;;
71572;SDS011;59408;51.032;9.410;2023-03-01T05:55:23;19.67;;;8.23;;
71572;SDS011;59408;51.032;9.410;2023-03-01T05:57:51;20.65;;;8.35;;
71572;SDS011;59408;51.032;9.410;2023-03-01T06:00:18;18.83;;;8.57;;
71572;SDS011;59408;51.032;9.410;2023-03-01T06:02:46;20.48;;;8.00;;
71572;SDS011;59408;51.032;9.410;2023-03-01T06:05:13;20.40;;;8.77;;
71572;SDS011;59408;51.032;9.410;2023-03-01T06:07:40;20.58;;;8.68;;
71572;SDS011;59408;51.032;9.410;2023-03-01T06:10:09;19.95;;;9.07;;
71572;SDS011;59408;51.032;9.410;2023-03-01T06:12:38;19.37;;;8.60;;
71572;SDS011;59408;51.032;9.410;2023-03-01T06:15:06;20.60;;;9.05;;
71572;SDS011;59408;51.032;9.410;2023-03-01T06:17:34;23.42;;;8.75;;
71572;SDS011;59408;51.032;9.410;2023-03-01T06:20:01;19.40;;;9.23;;
71572;SDS011;59408;51.032;9.410;2023-03-01T06:22:27;23.42;;;9.68;;
71572;SDS011;59408;51.032;9.410;2023-03-01T06:24:54;20.40;;;9.00;;
71572;SDS011;59408;51.032;9.410;2023-03-01T06:27:22;18.42;;;8.52;;
71572;SDS011;59408;51.032;9.410;2023-03-01T06:29:48;20.20;;;8.18;;
71572;SDS011;59408;51.032;9.410;2023-03-01T06:32:15;21.70;;;8.93;;
71572;SDS011;59408;51.032;9.410;2023-03-01T06:34:42;20.17;;;8.57;;
71572;SDS011;59408;51.032;9.410;2023-03-01T06:37:08;20.77;;;9.70;;
71572;SDS011;59408;51.032;9.410;2023-03-01T06:39:35;19.85;;;8.88;;
71572;SDS011;59408;51.032;9.410;2023-03-01T06:42:02;23.92;;;10.18;;
71572;SDS011;59408;51.032;9.410;2023-03-01T06:44:30;21.70;;;9.75;;
71572;SDS011;59408;51.032;9.410;2023-03-01T06:46:57;23.83;;;10.45;;
71572;SDS011;59408;51.032;9.410;2023-03-01T06:49:23;23.80;;;9.73;;
71572;SDS011;59408;51.032;9.410;2023-03-01T06:51:50;25.00;;;10.10;;
71572;SDS011;59408;51.032;9.410;2023-03-01T06:54:17;23.25;;;10.10;;
71572;SDS011;59408;51.032;9.410;2023-03-01T06:56:46;24.27;;;9.68;;
71572;SDS011;59408;51.032;9.410;2023-03-01T06:59:12;23.33;;;10.60;;
71572;SDS011;59408;51.032;9.410;2023-03-01T07:01:40;20.43;;;9.40;;
71572;SDS011;59408;51.032;9.410;2023-03-01T07:04:07;26.52;;;10.27;;
71572;SDS011;59408;51.032;9.410;2023-03-01T07:06:34;24.60;;;10.90;;
71572;SDS011;59408;51.032;9.410;2023-03-01T07:09:00;23.90;;;10.10;;
71572;SDS011;59408;51.032;9.410;2023-03-01T07:11:27;21.85;;;9.43;;
71572;SDS011;59408;51.032;9.410;2023-03-01T07:13:54;25.43;;;9.57;;
71572;SDS011;59408;51.032;9.410;2023-03-01T07:16:20;22.65;;;9.32;;
71572;SDS011;59408;51.032;9.410;2023-03-01T07:18:48;24.58;;;9.82;;
71572;SDS011;59408;51.032;9.410;2023-03-01T07:21:15;22.45;;;8.52;;
71572;SDS011;59408;51.032;9.410;2023-03-01T07:23:42;25.55;;;11.48;;
71572;SDS011;59408;51.032;9.410;2023-03-01T07:26:09;24.83;;;10.80;;
71572;SDS011;59408;51.032;9.410;2023-03-01T07:28:35;26.02;;;11.02;;
71572;SDS011;59408;51.032;9.410;2023-03-01T07:31:02;27.00;;;10.95;;
71572;SDS011;59408;51.032;9.410;2023-03-01T07:33:29;23.58;;;10.35;;
71572;SDS011;59408;51.032;9.410;2023-03-01T07:35:58;26.92;;;10.48;;
71572;SDS011;59408;51.032;9.410;2023-03-01T07:38:25;26.63;;;9.83;;
71572;SDS011;59408;51.032;9.410;2023-03-01T07:40:52;24.02;;;9.85;;
71572;SDS011;59408;51.032;9.410;2023-03-01T07:43:19;30.73;;;11.48;;
71572;SDS011;59408;51.032;9.410;2023-03-01T07:45:46;28.85;;;12.57;;
71572;SDS011;59408;51.032;9.410;2023-03-01T07:48:12;25.52;;;10.77;;
71572;SDS011;59408;51.032;9.410;2023-03-01T07:50:39;25.50;;;10.80;;
71572;SDS011;59408;51.032;9.410;2023-03-01T07:53:07;26.63;;;10.38;;
71572;SDS011;59408;51.032;9.410;2023-03-01T07:55:34;33.83;;;12.27;;
71572;SDS011;59408;51.032;9.410;2023-03-01T07:58:01;28.08;;;11.88;;
71572;SDS011;59408;51.032;9.410;2023-03-01T08:00:28;29.27;;;12.10;;
71572;SDS011;59408;51.032;9.410;2023-03-01T08:02:54;33.00;;;13.10;;
71572;SDS011;59408;51.032;9.410;2023-03-01T08:05:24;32.53;;;13.13;;
71572;SDS011;59408;51.032;9.410;2023-03-01T08:07:51;25.70;;;12.30;;
71572;SDS011;59408;51.032;9.410;2023-03-01T08:10:19;26.05;;;10.60;;
71572;SDS011;59408;51.032;9.410;2023-03-01T08:12:46;24.55;;;10.98;;
71572;SDS011;59408;51.032;9.410;2023-03-01T08:15:12;25.23;;;10.37;;
71572;SDS011;59408;51.032;9.410;2023-03-01T08:17:39;24.05;;;9.75;;
71572;SDS011;59408;51.032;9.410;2023-03-01T08:20:05;22.02;;;9.27;;
71572;SDS011;59408;51.032;9.410;2023-03-01T08:22:32;22.00;;;9.35;;
71572;SDS011;59408;51.032;9.410;2023-03-01T08:24:59;23.85;;;10.27;;
71572;SDS011;59408;51.032;9.410;2023-03-01T08:27:27;22.70;;;9.57;;
71572;SDS011;59408;51.032;9.410;2023-03-01T08:29:54;21.77;;;9.00;;
71572;SDS011;59408;51.032;9.410;2023-03-01T08:32:20;21.40;;;9.05;;
71572;SDS011;59408;51.032;9.410;2023-03-01T08:34:47;17.58;;;7.25;;
71572;SDS011;59408;51.032;9.410;2023-03-01T08:37:14;16.85;;;7.78;;
71572;SDS011;59408;51.032;9.410;2023-03-01T08:39:41;15.40;;;7.00;;
71572;SDS011;59408;51.032;9.410;2023-03-01T08:42:07;14.27;;;6.35;;
71572;SDS011;59408;51.032;9.410;2023-03-01T08:44:35;17.38;;;7.97;;
71572;SDS011;59408;51.032;9.410;2023-03-01T08:47:02;14.13;;;6.38;;
71572;SDS011;59408;51.032;9.410;2023-03-01T08:49:28;13.23;;;6.35;;
71572;SDS011;59408;51.032;9.410;2023-03-01T08:51:55;13.97;;;6.37;;
71572;SDS011;59408;51.032;9.410;2023-03-01T08:54:22;13.85;;;6.25;;
71572;SDS011;59408;51.032;9.410;2023-03-01T08:56:49;14.02;;;6.18;;
71572;SDS011;59408;51.032;9.410;2023-03-01T08:59:16;13.98;;;7.07;;
71572;SDS011;59408;51.032;9.410;2023-03-01T09:01:44;14.77;;;6.80;;
71572;SDS011;59408;51.032;9.410;2023-03-01T09:04:11;16.13;;;6.67;;
71572;SDS011;59408;51.032;9.410;2023-03-01T09:06:40;12.65;;;5.85;;
71572;SDS011;59408;51.032;9.410;2023-03-01T09:09:07;14.43;;;6.55;;
71572;SDS011;59408;51.032;9.410;2023-03-01T09:11:39;14.40;;;6.20;;
71572;SDS011;59408;51.032;9.410;2023-03-01T09:14:06;13.50;;;6.47;;
71572;SDS011;59408;51.032;9.410;2023-03-01T09:16:33;13.27;;;6.37;;
71572;SDS011;59408;51.032;9.410;2023-03-01T09:19:01;13.77;;;6.18;;
71572;SDS011;59408;51.032;9.410;2023-03-01T09:21:28;12.52;;;6.60;;
71572;SDS011;59408;51.032;9.410;2023-03-01T09:24:05;15.75;;;6.82;;
71572;SDS011;59408;51.032;9.410;2023-03-01T09:26:33;14.85;;;6.90;;
71572;SDS011;59408;51.032;9.410;2023-03-01T09:28:59;14.17;;;6.47;;
71572;SDS011;59408;51.032;9.410;2023-03-01T09:31:26;16.25;;;7.03;;
71572;SDS011;59408;51.032;9.410;2023-03-01T09:33:53;17.73;;;7.65;;
71572;SDS011;59408;51.032;9.410;2023-03-01T09:36:22;14.43;;;7.03;;
71572;SDS011;59408;51.032;9.410;2023-03-01T09:38:50;17.25;;;7.60;;
71572;SDS011;59408;51.032;9.410;2023-03-01T09:41:21;15.30;;;7.07;;
71572;SDS011;59408;51.032;9.410;2023-03-01T09:43:56;16.20;;;7.10;;
71572;SDS011;59408;51.032;9.410;2023-03-01T09:46:27;15.05;;;7.13;;
71572;SDS011;59408;51.032;9.410;2023-03-01T09:48:55;14.27;;;7.05;;
71572;SDS011;59408;51.032;9.410;2023-03-01T09:51:26;18.65;;;7.30;;
71572;SDS011;59408;51.032;9.410;2023-03-01T09:53:55;13.27;;;6.80;;
71572;SDS011;59408;51.032;9.410;2023-03-01T09:56:24;14.90;;;7.18;;
71572;SDS011;59408;51.032;9.410;2023-03-01T09:58:59;14.18;;;7.15;;
71572;SDS011;59408;51.032;9.410;2023-03-01T10:01:35;15.73;;;7.25;;
71572;SDS011;59408;51.032;9.410;2023-03-01T10:04:20;13.88;;;6.85;;
71572;SDS011;59408;51.032;9.410;2023-03-01T10:06:58;13.23;;;6.30;;
71572;SDS011;59408;51.032;9.410;2023-03-01T10:09:37;14.38;;;6.70;;
71572;SDS011;59408;51.032;9.410;2023-03-01T10:12:08;13.10;;;6.75;;
71572;SDS011;59408;51.032;9.410;2023-03-01T10:14:38;15.07;;;6.45;;
71572;SDS011;59408;51.032;9.410;2023-03-01T10:17:12;13.32;;;6.82;;
71572;SDS011;59408;51.032;9.410;2023-03-01T10:19:48;15.43;;;6.73;;
71572;SDS011;59408;51.032;9.410;2023-03-01T10:22:17;15.30;;;7.28;;
71572;SDS011;59408;51.032;9.410;2023-03-01T10:24:45;13.85;;;6.47;;
71572;SDS011;59408;51.032;9.410;2023-03-01T10:27:13;12.75;;;6.55;;
71572;SDS011;59408;51.032;9.410;2023-03-01T10:29:48;17.27;;;7.45;;
71572;SDS011;59408;51.032;9.410;2023-03-01T10:32:19;12.80;;;6.90;;
71572;SDS011;59408;51.032;9.410;2023-03-01T10:34:48;15.98;;;6.88;;
71572;SDS011;59408;51.032;9.410;2023-03-01T10:37:17;15.02;;;6.75;;
71572;SDS011;59408;51.032;9.410;2023-03-01T10:39:54;15.18;;;7.55;;
71572;SDS011;59408;51.032;9.410;2023-03-01T10:42:25;14.10;;;6.93;;
71572;SDS011;59408;51.032;9.410;2023-03-01T10:44:54;13.00;;;6.80;;
71572;SDS011;59408;51.032;9.410;2023-03-01T10:47:21;17.75;;;7.05;;
71572;SDS011;59408;51.032;9.410;2023-03-01T10:49:57;14.15;;;7.10;;
71572;SDS011;59408;51.032;9.410;2023-03-01T10:52:29;13.88;;;6.80;;
71572;SDS011;59408;51.032;9.410;2023-03-01T10:54:58;15.27;;;6.97;;
71572;SDS011;59408;51.032;9.410;2023-03-01T10:57:31;14.47;;;7.00;;
71572;SDS011;59408;51.032;9.410;2023-03-01T11:00:01;12.68;;;6.72;;
71572;SDS011;59408;51.032;9.410;2023-03-01T11:02:43;13.15;;;6.88;;
71572;SDS011;59408;51.032;9.410;2023-03-01T11:05:16;14.07;;;6.80;;
71572;SDS011;59408;51.032;9.410;2023-03-01T11:07:50;15.00;;;7.30;;
71572;SDS011;59408;51.032;9.410;2023-03-01T11:10:19;14.07;;;7.30;;
71572;SDS011;59408;51.032;9.410;2023-03-01T11:12:47;12.63;;;6.60;;
71572;SDS011;59408;51.032;9.410;2023-03-01T11:15:21;15.15;;;6.72;;
71572;SDS011;59408;51.032;9.410;2023-03-01T11:17:51;14.43;;;7.18;;
71572;SDS011;59408;51.032;9.410;2023-03-01T11:20:32;13.23;;;6.90;;
71572;SDS011;59408;51.032;9.410;2023-03-01T11:23:02;14.03;;;7.33;;
71572;SDS011;59408;51.032;9.410;2023-03-01T11:25:33;14.43;;;6.97;;
71572;SDS011;59408;51.032;9.410;2023-03-01T11:28:04;15.20;;;7.68;;
71572;SDS011;59408;51.032;9.410;2023-03-01T11:30:33;12.85;;;7.22;;
71572;SDS011;59408;51.032;9.410;2023-03-01T11:33:08;14.15;;;7.20;;
71572;SDS011;59408;51.032;9.410;2023-03-01T11:35:44;15.87;;;7.53;;
71572;SDS011;59408;51.032;9.410;2023-03-01T11:38:22;14.43;;;7.03;;
71572;SDS011;59408;51.032;9.410;2023-03-01T11:40:53;13.70;;;6.53;;
71572;SDS011;59408;51.032;9.410;2023-03-01T11:43:29;14.05;;;6.55;;
71572;SDS011;59408;51.032;9.410;2023-03-01T11:46:08;12.48;;;6.53;;
71572;SDS011;59408;51.032;9.410;2023-03-01T11:48:58;15.23;;;7.40;;
71572;SDS011;59408;51.032;9.410;2023-03-01T11:51:41;12.80;;;6.53;;
71572;SDS011;59408;51.032;9.410;2023-03-01T11:54:24;14.38;;;6.40;;
71572;SDS011;59408;51.032;9.410;2023-03-01T11:57:08;13.70;;;6.65;;
71572;SDS011;59408;51.032;9.410;2023-03-01T11:59:54;13.27;;;6.28;;
71572;SDS011;59408;51.032;9.410;2023-03-01T12:08:37;12.02;;;5.97;;
71572;SDS011;59408;51.032;9.410;2023-03-01T12:11:16;14.20;;;6.53;;
71572;SDS011;59408;51.032;9.410;2023-03-01T12:14:01;13.75;;;7.03;;
71572;SDS011;59408;51.032;9.410;2023-03-01T12:16:46;14.93;;;6.60;;
71572;SDS011;59408;51.032;9.410;2023-03-01T12:19:33;12.60;;;5.50;;
71572;SDS011;59408;51.032;9.410;2023-03-01T12:22:17;11.77;;;5.75;;
71572;SDS011;59408;51.032;9.410;2023-03-01T12:25:13;12.68;;;5.95;;
71572;SDS011;59408;51.032;9.410;2023-03-01T12:28:18;11.23;;;5.80;;
71572;SDS011;59408;51.032;9.410;2023-03-01T12:31:06;11.23;;;5.70;;
71572;SDS011;59408;51.032;9.410;2023-03-01T12:33:45;11.73;;;5.70;;
71572;SDS011;59408;51.032;9.410;2023-03-01T12:36:31;15.20;;;6.72;;
71572;SDS011;59408;51.032;9.410;2023-03-01T12:39:11;12.02;;;5.93;;
71572;SDS011;59408;51.032;9.410;2023-03-01T12:42:04;11.88;;;5.85;;
71572;SDS011;59408;51.032;9.410;2023-03-01T12:44:52;12.57;;;6.20;;
71572;SDS011;59408;51.032;9.410;2023-03-01T12:47:41;13.95;;;6.25;;
71572;SDS011;59408;51.032;9.410;2023-03-01T12:50:21;11.80;;;5.60;;
71572;SDS011;59408;51.032;9.410;2023-03-01T12:52:51;10.93;;;5.57;;
71572;SDS011;59408;51.032;9.410;2023-03-01T12:55:24;12.70;;;5.70;;
71572;SDS011;59408;51.032;9.410;2023-03-01T12:57:57;10.73;;;5.37;;
71572;SDS011;59408;51.032;9.410;2023-03-01T13:00:33;10.35;;;5.50;;
71572;SDS011;59408;51.032;9.410;2023-03-01T13:03:06;12.80;;;6.28;;
71572;SDS011;59408;51.032;9.410;2023-03-01T13:05:46;12.35;;;5.50;;
71572;SDS011;59408;51.032;9.410;2023-03-01T13:08:27;11.60;;;5.65;;
71572;SDS011;59408;51.032;9.410;2023-03-01T13:11:00;11.53;;;6.20;;
71572;SDS011;59408;51.032;9.410;2023-03-01T13:13:28;11.25;;;5.88;;
71572;SDS011;59408;51.032;9.410;2023-03-01T13:15:57;12.25;;;6.00;;
71572;SDS011;59408;51.032;9.410;2023-03-01T13:19:08;13.30;;;5.88;;
71572;SDS011;59408;51.032;9.410;2023-03-01T13:21:39;11.80;;;6.53;;
71572;SDS011;59408;51.032;9.410;2023-03-01T13:27:10;14.88;;;6.07;;
71572;SDS011;59408;51.032;9.410;2023-03-01T13:29:48;11.93;;;6.00;;
71572;SDS011;59408;51.032;9.410;2023-03-01T13:32:21;12.85;;;6.18;;
71572;SDS011;59408;51.032;9.410;2023-03-01T13:41:10;12.88;;;5.80;;
71572;SDS011;59408;51.032;9.410;2023-03-01T13:43:37;12.50;;;6.38;;
71572;SDS011;59408;51.032;9.410;2023-03-01T13:46:10;11.63;;;5.57;;
71572;SDS011;59408;51.032;9.410;2023-03-01T13:48:43;13.00;;;6.40;;
71572;SDS011;59408;51.032;9.410;2023-03-01T13:51:11;12.80;;;6.13;;
71572;SDS011;59408;51.032;9.410;2023-03-01T13:53:40;12.52;;;5.88;;
71572;SDS011;59408;51.032;9.410;2023-03-01T13:56:11;12.32;;;6.18;;
71572;SDS011;59408;51.032;9.410;2023-03-01T13:58:51;13.43;;;6.30;;
71572;SDS011;59408;51.032;9.410;2023-03-01T14:01:25;12.63;;;6.38;;
71572;SDS011;59408;51.032;9.410;2023-03-01T14:03:56;12.20;;;6.00;;
71572;SDS011;59408;51.032;9.410;2023-03-01T14:06:24;13.73;;;5.65;;
71572;SDS011;59408;51.032;9.410;2023-03-01T14:09:00;12.80;;;5.90;;
71572;SDS011;59408;51.032;9.410;2023-03-01T14:14:42;11.02;;;5.53;;
71572;SDS011;59408;51.032;9.410;2023-03-01T14:17:21;13.00;;;6.00;;
71572;SDS011;59408;51.032;9.410;2023-03-01T14:19:59;11.40;;;5.40;;
71572;SDS011;59408;51.032;9.410;2023-03-01T14:22:28;13.20;;;5.82;;
71572;SDS011;59408;51.032;9.410;2023-03-01T14:24:58;11.05;;;5.43;;
71572;SDS011;59408;51.032;9.410;2023-03-01T14:27:27;14.23;;;5.28;;
71572;SDS011;59408;51.032;9.410;2023-03-01T14:29:58;10.57;;;5.00;;
71572;SDS011;59408;51.032;9.410;2023-03-01T14:32:26;14.38;;;5.70;;
71572;SDS011;59408;51.032;9.410;2023-03-01T14:34:55;13.77;;;5.53;;
71572;SDS011;59408;51.032;9.410;2023-03-01T14:37:25;10.93;;;5.55;;
71572;SDS011;59408;51.032;9.410;2023-03-01T14:39:53;11.15;;;4.85;;
71572;SDS011;59408;51.032;9.410;2023-03-01T14:42:22;10.57;;;5.10;;
71572;SDS011;59408;51.032;9.410;2023-03-01T14:44:51;10.57;;;5.20;;
71572;SDS011;59408;51.032;9.410;2023-03-01T14:47:23;10.32;;;5.00;;
71572;SDS011;59408;51.032;9.410;2023-03-01T14:49:56;11.60;;;5.30;;
71572;SDS011;59408;51.032;9.410;2023-03-01T14:52:28;12.52;;;5.90;;
71572;SDS011;59408;51.032;9.410;2023-03-01T14:55:00;10.07;;;5.00;;
71572;SDS011;59408;51.032;9.410;2023-03-01T14:57:30;11.35;;;5.38;;
71572;SDS011;59408;51.032;9.410;2023-03-01T14:59:57;11.35;;;5.50;;
71572;SDS011;59408;51.032;9.410;2023-03-01T15:02:26;11.77;;;5.63;;
71572;SDS011;59408;51.032;9.410;2023-03-01T15:04:56;12.93;;;5.90;;
71572;SDS011;59408;51.032;9.410;2023-03-01T15:07:27;11.57;;;5.33;;